createdAt,value
2023-03-02T00:09:06.313Z,10.55
2023-03-02T00:19:27.543Z,11.88
2023-03-02T00:29:48.553Z,11.82
2023-03-02T00:40:10.371Z,10.98
2023-03-02T00:50:31.805Z,12.68
2023-03-02T01:00:53.010Z,12.10
2023-03-02T01:11:24.520Z,11.32
2023-03-02T01:21:45.936Z,11.85
2023-03-02T01:32:07.497Z,11.02
2023-03-02T01:42:34.802Z,12.57
2023-03-02T01:52:56.938Z,12.13
2023-03-02T02:03:23.557Z,12.77
2023-03-02T02:13:45.333Z,13.00
2023-03-02T02:24:11.882Z,12.18
2023-03-02T02:34:50.149Z,12.90
2023-03-02T02:45:26.502Z,12.60
2023-03-02T02:55:50.742Z,12.95
2023-03-02T03:06:19.446Z,13.52
2023-03-02T03:16:43.107Z,13.20
2023-03-02T03:27:05.728Z,13.15
2023-03-02T03:37:29.895Z,13.90
2023-03-02T03:47:51.203Z,13.88
2023-03-02T03:58:12.784Z,13.60
2023-03-02T04:08:34.611Z,15.00
2023-03-02T04:18:57.189Z,13.68
2023-03-02T04:29:19.534Z,14.18
2023-03-02T04:39:42.611Z,14.15
2023-03-02T04:50:03.679Z,14.18
2023-03-02T05:00:25.340Z,14.07
2023-03-02T05:10:46.337Z,13.90
2023-03-02T05:21:07.368Z,15.02
2023-03-02T05:31:31.593Z,14.13
2023-03-02T05:41:53.752Z,13.48
2023-03-02T05:52:15.171Z,15.30
2023-03-02T06:02:39.272Z,15.48
2023-03-02T06:13:01.321Z,14.93
2023-03-02T06:23:22.320Z,15.43
2023-03-02T06:33:43.756Z,15.05
2023-03-02T06:44:05.405Z,14.80
2023-03-02T06:54:26.642Z,15.25
2023-03-02T07:04:47.649Z,16.42
2023-03-02T07:15:12.485Z,14.68
2023-03-02T07:25:33.895Z,15.57
2023-03-02T07:35:54.851Z,14.63
2023-03-02T07:46:16.547Z,16.08
2023-03-02T07:56:38.031Z,14.75
2023-03-02T08:06:59.146Z,16.55
2023-03-02T08:17:20.771Z,15.88
2023-03-02T08:27:42.249Z,16.05
2023-03-02T08:38:03.327Z,17.20
2023-03-02T08:48:25.593Z,17.05
2023-03-02T08:58:48.287Z,17.42
2023-03-02T09:09:11.340Z,16.63
2023-03-02T09:19:43.928Z,16.80
2023-03-02T09:30:06.271Z,16.52
2023-03-02T09:40:29.122Z,16.17
2023-03-02T09:51:24.213Z,16.17
2023-03-02T10:01:53.264Z,16.95
2023-03-02T10:12:35.728Z,16.27
2023-03-02T10:23:26.688Z,15.80
2023-03-02T10:33:48.267Z,16.90
2023-03-02T10:44:42.888Z,15.80
2023-03-02T10:55:07.140Z,15.85
2023-03-02T11:05:32.815Z,15.75
2023-03-02T11:15:56.969Z,16.23
2023-03-02T11:26:23.800Z,15.18
2023-03-02T11:36:59.497Z,15.45
2023-03-02T11:47:21.497Z,15.13
2023-03-02T11:57:49.786Z,14.52
2023-03-02T12:08:20.096Z,14.90
2023-03-02T12:18:47.893Z,15.13
2023-03-02T12:29:10.511Z,13.30
2023-03-02T12:39:43.331Z,13.60
2023-03-02T12:50:18.202Z,12.45
2023-03-02T13:00:39.209Z,13.55
2023-03-02T13:11:03.733Z,12.73
2023-03-02T13:21:31.235Z,12.70
2023-03-02T13:31:53.068Z,11.65
2023-03-02T13:42:26.247Z,11.05
2023-03-02T13:52:48.924Z,10.32
2023-03-02T14:03:23.175Z,11.00
2023-03-02T14:13:48.088Z,11.65
2023-03-02T14:24:09.351Z,10.00
2023-03-02T14:34:30.489Z,10.98
2023-03-02T14:44:52.288Z,11.07
2023-03-02T14:55:15.881Z,9.85
2023-03-02T15:05:37.036Z,10.75
2023-03-02T15:15:58.164Z,10.75
2023-03-02T15:26:19.704Z,9.95
2023-03-02T15:36:41.209Z,11.18
2023-03-02T15:47:02.612Z,10.88
2023-03-02T15:57:25.132Z,10.40
2023-03-02T16:07:46.028Z,10.48
2023-03-02T16:18:08.944Z,10.23
2023-03-02T16:28:30.581Z,11.25
2023-03-02T16:38:52.278Z,10.15
2023-03-02T16:49:14.035Z,10.63
2023-03-02T16:59:35.172Z,10.68
2023-03-02T17:09:56.487Z,10.73
2023-03-02T17:20:18.204Z,10.32
2023-03-02T17:30:40.310Z,11.05
2023-03-02T17:41:05.616Z,10.82
2023-03-02T17:51:28.687Z,12.07
2023-03-02T18:01:50.355Z,11.75
2023-03-02T18:12:11.391Z,11.85
2023-03-02T18:22:32.791Z,11.90
2023-03-02T18:32:54.538Z,13.23
2023-03-02T18:43:15.575Z,11.73
2023-03-02T18:53:38.371Z,13.55
2023-03-02T19:04:00.852Z,12.38
2023-03-02T19:14:22.416Z,11.63
2023-03-02T19:24:47.761Z,11.68
2023-03-02T19:35:12.463Z,12.68
2023-03-02T19:45:35.880Z,11.85
2023-03-02T19:56:04.757Z,11.98
2023-03-02T20:06:33.524Z,10.98
2023-03-02T20:16:55.271Z,12.48
2023-03-02T20:27:16.606Z,11.93
2023-03-02T20:37:38.642Z,11.10
2023-03-02T20:47:59.604Z,10.18
2023-03-02T20:58:20.867Z,10.45
2023-03-02T21:08:42.639Z,10.93
2023-03-02T21:19:06.165Z,10.50
2023-03-02T21:29:27.801Z,10.57
2023-03-02T21:39:49.730Z,10.60
2023-03-02T21:50:20.772Z,10.80
2023-03-02T22:00:45.754Z,11.40
2023-03-02T22:11:07.186Z,10.52
2023-03-02T22:21:39.161Z,11.07
2023-03-02T22:32:21.297Z,11.57
2023-03-02T22:42:42.906Z,10.50
2023-03-02T22:53:18.488Z,11.35
2023-03-02T23:03:41.700Z,10.57
2023-03-02T23:14:03.586Z,10.15
2023-03-02T23:24:25.369Z,10.38
2023-03-02T23:34:47.825Z,9.88
2023-03-02T23:45:09.776Z,11.00
2023-03-02T23:55:32.446Z,11.07
